sensor_id;sensor_type;location;lat;lon;timestamp;P1;durP1;ratioP1;P2;durP2;ratioP2
85757;SDS011;76202;52.626;4.746;2024-03-02T00:02:10;6.78;;;1.48;;
85757;SDS011;76202;52.626;4.746;2024-03-02T00:04:36;5.35;;;1.30;;
85757;SDS011;76202;52.626;4.746;2024-03-02T00:07:02;6.15;;;1.42;;
85757;SDS011;76202;52.626;4.746;2024-03-02T00:09:28;6.90;;;1.77;;
85757;SDS011;76202;52.626;4.746;2024-03-02T00:11:54;6.20;;;1.50;;
85757;SDS011;76202;52.626;4.746;2024-03-02T00:14:20;7.38;;;1.40;;
85757;SDS011;76202;52.626;4.746;2024-03-02T00:16:45;4.82;;;1.30;;
85757;SDS011;76202;52.626;4.746;2024-03-02T00:19:11;5.93;;;1.30;;
85757;SDS011;76202;52.626;4.746;2024-03-02T00:21:36;6.95;;;1.35;;
85757;SDS011;76202;52.626;4.746;2024-03-02T00:24:07;4.32;;;1.30;;
85757;SDS011;76202;52.626;4.746;2024-03-02T00:26:45;4.28;;;1.40;;
85757;SDS011;76202;52.626;4.746;2024-03-02T00:29:10;5.25;;;1.40;;
85757;SDS011;76202;52.626;4.746;2024-03-02T00:31:41;4.07;;;1.20;;
85757;SDS011;76202;52.626;4.746;2024-03-02T00:34:06;3.58;;;1.30;;
85757;SDS011;76202;52.626;4.746;2024-03-02T00:36:32;7.00;;;1.58;;
85757;SDS011;76202;52.626;4.746;2024-03-02T00:38:58;4.13;;;1.30;;
85757;SDS011;76202;52.626;4.746;2024-03-02T00:41:24;4.75;;;1.42;;
85757;SDS011;76202;52.626;4.746;2024-03-02T00:46:31;4.28;;;1.25;;
85757;SDS011;76202;52.626;4.746;2024-03-02T00:49:02;4.95;;;1.38;;
85757;SDS011;76202;52.626;4.746;2024-03-02T00:51:29;2.97;;;1.10;;
85757;SDS011;76202;52.626;4.746;2024-03-02T00:53:58;7.40;;;1.30;;
85757;SDS011;76202;52.626;4.746;2024-03-02T00:56:25;6.72;;;1.30;;
85757;SDS011;76202;52.626;4.746;2024-03-02T00:58:51;3.17;;;1.20;;
85757;SDS011;76202;52.626;4.746;2024-03-02T01:01:17;5.03;;;1.30;;
85757;SDS011;76202;52.626;4.746;2024-03-02T01:03:44;4.68;;;1.30;;
85757;SDS011;76202;52.626;4.746;2024-03-02T01:06:10;4.90;;;1.40;;
85757;SDS011;76202;52.626;4.746;2024-03-02T01:08:35;5.10;;;1.30;;
85757;SDS011;76202;52.626;4.746;2024-03-02T01:11:01;6.55;;;1.33;;
85757;SDS011;76202;52.626;4.746;2024-03-02T01:13:27;6.38;;;1.30;;
85757;SDS011;76202;52.626;4.746;2024-03-02T01:15:53;5.00;;;1.20;;
85757;SDS011;76202;52.626;4.746;2024-03-02T01:18:18;2.95;;;1.10;;
85757;SDS011;76202;52.626;4.746;2024-03-02T01:20:44;4.57;;;1.10;;
85757;SDS011;76202;52.626;4.746;2024-03-02T01:23:09;3.92;;;1.20;;
85757;SDS011;76202;52.626;4.746;2024-03-02T01:25:36;6.65;;;1.20;;
85757;SDS011;76202;52.626;4.746;2024-03-02T01:28:02;4.40;;;1.23;;
85757;SDS011;76202;52.626;4.746;2024-03-02T01:30:27;4.53;;;1.20;;
85757;SDS011;76202;52.626;4.746;2024-03-02T01:32:52;3.13;;;1.13;;
85757;SDS011;76202;52.626;4.746;2024-03-02T01:35:18;4.38;;;1.30;;
85757;SDS011;76202;52.626;4.746;2024-03-02T01:37:43;5.15;;;1.30;;
85757;SDS011;76202;52.626;4.746;2024-03-02T01:40:09;4.05;;;1.10;;
85757;SDS011;76202;52.626;4.746;2024-03-02T01:42:38;4.13;;;1.02;;
85757;SDS011;76202;52.626;4.746;2024-03-02T01:45:07;4.82;;;1.25;;
85757;SDS011;76202;52.626;4.746;2024-03-02T01:47:33;2.78;;;1.00;;
85757;SDS011;76202;52.626;4.746;2024-03-02T01:49:59;4.47;;;1.20;;
85757;SDS011;76202;52.626;4.746;2024-03-02T01:52:26;6.70;;;1.20;;
85757;SDS011;76202;52.626;4.746;2024-03-02T01:54:52;3.58;;;1.00;;
85757;SDS011;76202;52.626;4.746;2024-03-02T01:57:17;5.47;;;1.10;;
85757;SDS011;76202;52.626;4.746;2024-03-02T01:59:43;4.40;;;1.10;;
85757;SDS011;76202;52.626;4.746;2024-03-02T02:02:08;5.43;;;1.20;;
85757;SDS011;76202;52.626;4.746;2024-03-02T02:04:34;3.85;;;1.17;;
85757;SDS011;76202;52.626;4.746;2024-03-02T02:06:59;3.80;;;1.20;;
85757;SDS011;76202;52.626;4.746;2024-03-02T02:09:25;4.38;;;1.10;;
85757;SDS011;76202;52.626;4.746;2024-03-02T02:11:50;3.55;;;1.08;;
85757;SDS011;76202;52.626;4.746;2024-03-02T02:14:16;2.70;;;0.88;;
85757;SDS011;76202;52.626;4.746;2024-03-02T02:16:42;1.83;;;0.90;;
85757;SDS011;76202;52.626;4.746;2024-03-02T02:19:07;2.25;;;0.90;;
85757;SDS011;76202;52.626;4.746;2024-03-02T02:21:33;6.03;;;1.10;;
85757;SDS011;76202;52.626;4.746;2024-03-02T02:23:58;3.05;;;1.20;;
85757;SDS011;76202;52.626;4.746;2024-03-02T02:26:24;2.67;;;0.95;;
85757;SDS011;76202;52.626;4.746;2024-03-02T02:28:49;1.40;;;0.77;;
85757;SDS011;76202;52.626;4.746;2024-03-02T02:31:15;3.10;;;0.90;;
85757;SDS011;76202;52.626;4.746;2024-03-02T02:33:41;2.70;;;0.90;;
85757;SDS011;76202;52.626;4.746;2024-03-02T02:36:07;4.25;;;1.10;;
85757;SDS011;76202;52.626;4.746;2024-03-02T02:38:33;2.85;;;0.95;;
85757;SDS011;76202;52.626;4.746;2024-03-02T02:41:03;1.75;;;0.90;;
85757;SDS011;76202;52.626;4.746;2024-03-02T02:43:28;4.43;;;1.00;;
85757;SDS011;76202;52.626;4.746;2024-03-02T02:45:53;2.65;;;1.00;;
85757;SDS011;76202;52.626;4.746;2024-03-02T02:48:19;2.92;;;1.00;;
85757;SDS011;76202;52.626;4.746;2024-03-02T02:50:44;2.47;;;0.90;;
85757;SDS011;76202;52.626;4.746;2024-03-02T02:53:10;3.28;;;0.98;;
85757;SDS011;76202;52.626;4.746;2024-03-02T02:55:35;2.20;;;0.80;;
85757;SDS011;76202;52.626;4.746;2024-03-02T02:58:05;1.77;;;0.68;;
85757;SDS011;76202;52.626;4.746;2024-03-02T03:00:33;1.38;;;0.77;;
85757;SDS011;76202;52.626;4.746;2024-03-02T03:03:01;2.58;;;0.80;;
85757;SDS011;76202;52.626;4.746;2024-03-02T03:05:27;1.90;;;0.77;;
85757;SDS011;76202;52.626;4.746;2024-03-02T03:07:52;2.92;;;0.95;;
85757;SDS011;76202;52.626;4.746;2024-03-02T03:10:18;2.67;;;1.00;;
85757;SDS011;76202;52.626;4.746;2024-03-02T03:12:45;3.63;;;1.00;;
85757;SDS011;76202;52.626;4.746;2024-03-02T03:15:11;3.38;;;1.00;;
85757;SDS011;76202;52.626;4.746;2024-03-02T03:17:37;2.08;;;1.00;;
85757;SDS011;76202;52.626;4.746;2024-03-02T03:20:02;3.63;;;1.00;;
85757;SDS011;76202;52.626;4.746;2024-03-02T03:22:29;2.08;;;0.75;;
85757;SDS011;76202;52.626;4.746;2024-03-02T03:24:56;1.90;;;0.73;;
85757;SDS011;76202;52.626;4.746;2024-03-02T03:27:21;3.22;;;0.70;;
85757;SDS011;76202;52.626;4.746;2024-03-02T03:29:46;3.33;;;0.80;;
85757;SDS011;76202;52.626;4.746;2024-03-02T03:32:12;2.95;;;0.80;;
85757;SDS011;76202;52.626;4.746;2024-03-02T03:34:37;2.78;;;0.90;;
85757;SDS011;76202;52.626;4.746;2024-03-02T03:37:03;4.82;;;0.98;;
85757;SDS011;76202;52.626;4.746;2024-03-02T03:39:29;2.92;;;1.00;;
85757;SDS011;76202;52.626;4.746;2024-03-02T03:41:54;1.90;;;0.77;;
85757;SDS011;76202;52.626;4.746;2024-03-02T03:44:20;4.05;;;0.85;;
85757;SDS011;76202;52.626;4.746;2024-03-02T03:46:46;1.92;;;0.80;;
85757;SDS011;76202;52.626;4.746;2024-03-02T03:49:11;2.25;;;0.80;;
85757;SDS011;76202;52.626;4.746;2024-03-02T03:51:36;1.65;;;0.60;;
85757;SDS011;76202;52.626;4.746;2024-03-02T03:54:02;1.90;;;0.75;;
85757;SDS011;76202;52.626;4.746;2024-03-02T03:56:27;4.03;;;1.05;;
85757;SDS011;76202;52.626;4.746;2024-03-02T03:58:52;2.53;;;0.70;;
85757;SDS011;76202;52.626;4.746;2024-03-02T04:01:18;2.10;;;0.90;;
85757;SDS011;76202;52.626;4.746;2024-03-02T04:03:43;1.73;;;0.73;;
85757;SDS011;76202;52.626;4.746;2024-03-02T04:06:09;1.45;;;0.68;;
85757;SDS011;76202;52.626;4.746;2024-03-02T04:08:34;2.22;;;1.20;;
85757;SDS011;76202;52.626;4.746;2024-03-02T04:10:59;2.88;;;0.85;;
85757;SDS011;76202;52.626;4.746;2024-03-02T04:13:25;1.90;;;0.70;;
85757;SDS011;76202;52.626;4.746;2024-03-02T04:15:50;2.33;;;0.70;;
85757;SDS011;76202;52.626;4.746;2024-03-02T04:18:15;2.28;;;0.82;;
85757;SDS011;76202;52.626;4.746;2024-03-02T04:20:41;1.95;;;0.70;;
85757;SDS011;76202;52.626;4.746;2024-03-02T04:23:06;2.42;;;0.80;;
85757;SDS011;76202;52.626;4.746;2024-03-02T04:25:32;2.55;;;0.80;;
85757;SDS011;76202;52.626;4.746;2024-03-02T04:27:58;1.23;;;0.70;;
85757;SDS011;76202;52.626;4.746;2024-03-02T04:30:23;1.85;;;0.75;;
85757;SDS011;76202;52.626;4.746;2024-03-02T04:32:48;1.33;;;0.75;;
85757;SDS011;76202;52.626;4.746;2024-03-02T04:35:14;1.50;;;0.75;;
85757;SDS011;76202;52.626;4.746;2024-03-02T04:37:39;3.05;;;0.88;;
85757;SDS011;76202;52.626;4.746;2024-03-02T04:40:05;1.10;;;0.70;;
85757;SDS011;76202;52.626;4.746;2024-03-02T04:42:34;2.33;;;0.75;;
85757;SDS011;76202;52.626;4.746;2024-03-02T04:45:00;3.33;;;1.10;;
85757;SDS011;76202;52.626;4.746;2024-03-02T04:47:25;3.17;;;0.80;;
85757;SDS011;76202;52.626;4.746;2024-03-02T04:49:51;1.42;;;0.80;;
85757;SDS011;76202;52.626;4.746;2024-03-02T04:52:16;1.90;;;0.80;;
85757;SDS011;76202;52.626;4.746;2024-03-02T04:54:42;1.30;;;0.70;;
85757;SDS011;76202;52.626;4.746;2024-03-02T04:57:26;2.47;;;0.80;;
85757;SDS011;76202;52.626;4.746;2024-03-02T04:59:52;1.90;;;0.80;;
85757;SDS011;76202;52.626;4.746;2024-03-02T05:02:17;2.63;;;0.80;;
85757;SDS011;76202;52.626;4.746;2024-03-02T05:04:42;1.98;;;0.82;;
85757;SDS011;76202;52.626;4.746;2024-03-02T05:07:08;2.63;;;0.93;;
85757;SDS011;76202;52.626;4.746;2024-03-02T05:09:33;2.38;;;0.82;;
85757;SDS011;76202;52.626;4.746;2024-03-02T05:11:58;2.15;;;0.70;;
85757;SDS011;76202;52.626;4.746;2024-03-02T05:14:42;1.97;;;0.80;;
85757;SDS011;76202;52.626;4.746;2024-03-02T05:17:08;1.58;;;0.60;;
85757;SDS011;76202;52.626;4.746;2024-03-02T05:19:33;1.58;;;0.63;;
85757;SDS011;76202;52.626;4.746;2024-03-02T05:21:58;0.68;;;0.60;;
85757;SDS011;76202;52.626;4.746;2024-03-02T05:24:24;1.08;;;0.77;;
85757;SDS011;76202;52.626;4.746;2024-03-02T05:26:52;1.00;;;0.68;;
85757;SDS011;76202;52.626;4.746;2024-03-02T05:29:17;2.03;;;0.55;;
85757;SDS011;76202;52.626;4.746;2024-03-02T05:31:43;2.08;;;0.60;;
85757;SDS011;76202;52.626;4.746;2024-03-02T05:34:08;2.20;;;0.75;;
85757;SDS011;76202;52.626;4.746;2024-03-02T05:36:33;2.67;;;0.90;;
85757;SDS011;76202;52.626;4.746;2024-03-02T05:38:59;2.47;;;0.88;;
85757;SDS011;76202;52.626;4.746;2024-03-02T05:41:24;1.58;;;0.80;;
85757;SDS011;76202;52.626;4.746;2024-03-02T05:43:50;1.50;;;0.70;;
85757;SDS011;76202;52.626;4.746;2024-03-02T05:46:15;1.38;;;0.80;;
85757;SDS011;76202;52.626;4.746;2024-03-02T05:48:41;1.90;;;1.30;;
85757;SDS011;76202;52.626;4.746;2024-03-02T05:51:06;2.35;;;0.73;;
85757;SDS011;76202;52.626;4.746;2024-03-02T05:53:31;1.55;;;0.68;;
85757;SDS011;76202;52.626;4.746;2024-03-02T05:55:57;1.00;;;0.57;;
85757;SDS011;76202;52.626;4.746;2024-03-02T05:58:22;3.50;;;0.80;;
85757;SDS011;76202;52.626;4.746;2024-03-02T06:00:57;1.55;;;0.80;;
85757;SDS011;76202;52.626;4.746;2024-03-02T06:03:23;1.13;;;0.70;;
85757;SDS011;76202;52.626;4.746;2024-03-02T06:05:48;1.20;;;0.57;;
85757;SDS011;76202;52.626;4.746;2024-03-02T06:08:14;1.63;;;0.68;;
85757;SDS011;76202;52.626;4.746;2024-03-02T06:10:40;2.28;;;0.77;;
85757;SDS011;76202;52.626;4.746;2024-03-02T06:13:05;2.08;;;0.70;;
85757;SDS011;76202;52.626;4.746;2024-03-02T06:15:31;0.77;;;0.50;;
85757;SDS011;76202;52.626;4.746;2024-03-02T06:17:56;2.13;;;0.60;;
85757;SDS011;76202;52.626;4.746;2024-03-02T06:20:21;2.72;;;0.77;;
85757;SDS011;76202;52.626;4.746;2024-03-02T06:22:47;1.77;;;0.70;;
85757;SDS011;76202;52.626;4.746;2024-03-02T06:25:12;2.33;;;0.52;;
85757;SDS011;76202;52.626;4.746;2024-03-02T06:27:38;0.65;;;0.60;;
85757;SDS011;76202;52.626;4.746;2024-03-02T06:30:03;0.60;;;0.55;;
85757;SDS011;76202;52.626;4.746;2024-03-02T06:32:29;0.93;;;0.40;;
85757;SDS011;76202;52.626;4.746;2024-03-02T06:34:55;1.02;;;0.50;;
85757;SDS011;76202;52.626;4.746;2024-03-02T06:37:20;3.20;;;0.90;;
85757;SDS011;76202;52.626;4.746;2024-03-02T06:39:45;2.60;;;1.00;;
85757;SDS011;76202;52.626;4.746;2024-03-02T06:42:11;1.30;;;0.60;;
85757;SDS011;76202;52.626;4.746;2024-03-02T06:44:36;4.60;;;0.80;;
85757;SDS011;76202;52.626;4.746;2024-03-02T06:47:02;2.83;;;0.52;;
85757;SDS011;76202;52.626;4.746;2024-03-02T06:49:27;3.45;;;0.68;;
85757;SDS011;76202;52.626;4.746;2024-03-02T06:51:52;4.43;;;0.70;;
85757;SDS011;76202;52.626;4.746;2024-03-02T06:54:18;1.90;;;0.70;;
85757;SDS011;76202;52.626;4.746;2024-03-02T06:56:43;2.90;;;0.63;;
85757;SDS011;76202;52.626;4.746;2024-03-02T06:59:09;6.03;;;0.90;;
85757;SDS011;76202;52.626;4.746;2024-03-02T07:01:34;5.07;;;1.00;;
85757;SDS011;76202;52.626;4.746;2024-03-02T07:03:59;1.55;;;0.70;;
85757;SDS011;76202;52.626;4.746;2024-03-02T07:06:25;4.00;;;0.68;;
85757;SDS011;76202;52.626;4.746;2024-03-02T07:08:50;10.45;;;1.13;;
85757;SDS011;76202;52.626;4.746;2024-03-02T07:11:15;7.97;;;1.20;;
85757;SDS011;76202;52.626;4.746;2024-03-02T07:13:41;4.70;;;0.98;;
85757;SDS011;76202;52.626;4.746;2024-03-02T07:16:06;5.03;;;0.88;;
85757;SDS011;76202;52.626;4.746;2024-03-02T07:18:52;3.55;;;0.80;;
85757;SDS011;76202;52.626;4.746;2024-03-02T07:21:20;9.00;;;1.00;;
85757;SDS011;76202;52.626;4.746;2024-03-02T07:23:47;6.68;;;1.00;;
85757;SDS011;76202;52.626;4.746;2024-03-02T07:26:12;3.90;;;1.00;;
85757;SDS011;76202;52.626;4.746;2024-03-02T07:28:40;2.80;;;0.65;;
85757;SDS011;76202;52.626;4.746;2024-03-02T07:31:06;5.03;;;1.10;;
85757;SDS011;76202;52.626;4.746;2024-03-02T07:33:31;2.80;;;0.98;;
85757;SDS011;76202;52.626;4.746;2024-03-02T07:35:57;4.88;;;0.70;;
85757;SDS011;76202;52.626;4.746;2024-03-02T07:38:24;4.05;;;1.00;;
85757;SDS011;76202;52.626;4.746;2024-03-02T07:40:50;5.38;;;0.93;;
85757;SDS011;76202;52.626;4.746;2024-03-02T07:43:19;6.53;;;1.20;;
85757;SDS011;76202;52.626;4.746;2024-03-02T07:45:48;5.50;;;1.10;;
85757;SDS011;76202;52.626;4.746;2024-03-02T07:48:13;3.92;;;0.77;;
85757;SDS011;76202;52.626;4.746;2024-03-02T07:50:40;4.00;;;0.93;;
85757;SDS011;76202;52.626;4.746;2024-03-02T07:53:06;5.30;;;1.23;;
85757;SDS011;76202;52.626;4.746;2024-03-02T07:55:33;4.82;;;1.05;;
85757;SDS011;76202;52.626;4.746;2024-03-02T07:57:58;5.60;;;1.15;;
85757;SDS011;76202;52.626;4.746;2024-03-02T08:00:25;4.22;;;0.90;;
85757;SDS011;76202;52.626;4.746;2024-03-02T08:02:50;6.13;;;1.10;;
85757;SDS011;76202;52.626;4.746;2024-03-02T08:05:17;6.30;;;0.98;;
85757;SDS011;76202;52.626;4.746;2024-03-02T08:07:44;4.90;;;0.82;;
85757;SDS011;76202;52.626;4.746;2024-03-02T08:10:10;2.45;;;0.73;;
85757;SDS011;76202;52.626;4.746;2024-03-02T08:12:36;7.22;;;0.98;;
85757;SDS011;76202;52.626;4.746;2024-03-02T08:15:01;5.85;;;1.00;;
85757;SDS011;76202;52.626;4.746;2024-03-02T08:17:27;2.53;;;0.80;;
85757;SDS011;76202;52.626;4.746;2024-03-02T08:19:52;3.72;;;0.80;;
85757;SDS011;76202;52.626;4.746;2024-03-02T08:22:19;5.90;;;0.90;;
85757;SDS011;76202;52.626;4.746;2024-03-02T08:24:44;3.88;;;0.90;;
85757;SDS011;76202;52.626;4.746;2024-03-02T08:27:10;5.63;;;0.90;;
85757;SDS011;76202;52.626;4.746;2024-03-02T08:29:36;5.50;;;1.10;;
85757;SDS011;76202;52.626;4.746;2024-03-02T08:32:01;4.55;;;1.08;;
85757;SDS011;76202;52.626;4.746;2024-03-02T08:34:26;4.97;;;0.95;;
85757;SDS011;76202;52.626;4.746;2024-03-02T08:36:51;3.53;;;0.80;;
85757;SDS011;76202;52.626;4.746;2024-03-02T08:39:17;5.80;;;0.80;;
85757;SDS011;76202;52.626;4.746;2024-03-02T08:41:44;3.50;;;0.73;;
85757;SDS011;76202;52.626;4.746;2024-03-02T08:44:12;9.23;;;1.20;;
85757;SDS011;76202;52.626;4.746;2024-03-02T08:46:38;5.82;;;1.10;;
85757;SDS011;76202;52.626;4.746;2024-03-02T08:49:04;3.95;;;0.88;;
85757;SDS011;76202;52.626;4.746;2024-03-02T08:51:30;5.72;;;1.10;;
85757;SDS011;76202;52.626;4.746;2024-03-02T08:53:56;3.25;;;0.80;;
85757;SDS011;76202;52.626;4.746;2024-03-02T08:56:21;4.38;;;0.70;;
85757;SDS011;76202;52.626;4.746;2024-03-02T08:58:48;3.17;;;0.65;;
85757;SDS011;76202;52.626;4.746;2024-03-02T09:01:14;3.80;;;0.82;;
85757;SDS011;76202;52.626;4.746;2024-03-02T09:03:39;7.28;;;0.90;;
85757;SDS011;76202;52.626;4.746;2024-03-02T09:06:05;6.05;;;1.13;;
85757;SDS011;76202;52.626;4.746;2024-03-02T09:08:30;7.85;;;1.15;;
85757;SDS011;76202;52.626;4.746;2024-03-02T09:10:56;7.32;;;1.05;;
85757;SDS011;76202;52.626;4.746;2024-03-02T09:13:21;4.50;;;0.82;;
85757;SDS011;76202;52.626;4.746;2024-03-02T09:15:47;4.13;;;0.98;;
85757;SDS011;76202;52.626;4.746;2024-03-02T09:18:13;4.78;;;0.85;;
85757;SDS011;76202;52.626;4.746;2024-03-02T09:20:38;8.05;;;1.20;;
85757;SDS011;76202;52.626;4.746;2024-03-02T09:23:04;3.53;;;0.90;;
85757;SDS011;76202;52.626;4.746;2024-03-02T09:25:29;7.10;;;1.10;;
85757;SDS011;76202;52.626;4.746;2024-03-02T09:27:55;2.38;;;0.70;;
85757;SDS011;76202;52.626;4.746;2024-03-02T09:30:20;7.85;;;1.00;;
85757;SDS011;76202;52.626;4.746;2024-03-02T09:32:45;3.13;;;0.82;;
85757;SDS011;76202;52.626;4.746;2024-03-02T09:35:11;4.45;;;1.25;;
85757;SDS011;76202;52.626;4.746;2024-03-02T09:37:37;10.95;;;0.90;;
85757;SDS011;76202;52.626;4.746;2024-03-02T09:40:02;2.80;;;0.80;;
85757;SDS011;76202;52.626;4.746;2024-03-02T09:42:28;5.35;;;0.82;;
85757;SDS011;76202;52.626;4.746;2024-03-02T09:44:54;4.00;;;1.15;;
85757;SDS011;76202;52.626;4.746;2024-03-02T09:47:20;4.15;;;0.82;;
85757;SDS011;76202;52.626;4.746;2024-03-02T09:49:45;5.07;;;0.95;;
85757;SDS011;76202;52.626;4.746;2024-03-02T09:52:10;3.28;;;0.90;;
85757;SDS011;76202;52.626;4.746;2024-03-02T09:54:36;5.93;;;1.00;;
85757;SDS011;76202;52.626;4.746;2024-03-02T09:57:01;5.60;;;1.23;;
85757;SDS011;76202;52.626;4.746;2024-03-02T09:59:27;3.55;;;0.90;;
85757;SDS011;76202;52.626;4.746;2024-03-02T10:02:00;5.55;;;1.13;;
85757;SDS011;76202;52.626;4.746;2024-03-02T10:04:28;3.10;;;0.70;;
85757;SDS011;76202;52.626;4.746;2024-03-02T10:07:13;10.45;;;1.10;;
85757;SDS011;76202;52.626;4.746;2024-03-02T10:09:40;2.88;;;0.80;;
85757;SDS011;76202;52.626;4.746;2024-03-02T10:12:08;8.15;;;1.10;;
85757;SDS011;76202;52.626;4.746;2024-03-02T10:14:35;4.45;;;0.82;;
85757;SDS011;76202;52.626;4.746;2024-03-02T10:17:04;5.03;;;1.13;;
85757;SDS011;76202;52.626;4.746;2024-03-02T10:19:32;3.55;;;0.90;;
85757;SDS011;76202;52.626;4.746;2024-03-02T10:21:59;5.93;;;1.10;;
85757;SDS011;76202;52.626;4.746;2024-03-02T10:24:26;6.35;;;1.08;;
85757;SDS011;76202;52.626;4.746;2024-03-02T10:26:52;4.97;;;0.90;;
85757;SDS011;76202;52.626;4.746;2024-03-02T10:29:18;15.18;;;1.48;;
85757;SDS011;76202;52.626;4.746;2024-03-02T10:31:43;4.78;;;1.00;;
85757;SDS011;76202;52.626;4.746;2024-03-02T10:34:13;8.40;;;1.20;;
85757;SDS011;76202;52.626;4.746;2024-03-02T10:36:42;8.15;;;1.20;;
85757;SDS011;76202;52.626;4.746;2024-03-02T10:39:10;4.45;;;0.80;;
85757;SDS011;76202;52.626;4.746;2024-03-02T10:41:39;3.58;;;0.90;;
85757;SDS011;76202;52.626;4.746;2024-03-02T10:44:06;3.33;;;0.88;;
85757;SDS011;76202;52.626;4.746;2024-03-02T10:46:34;2.38;;;0.70;;
85757;SDS011;76202;52.626;4.746;2024-03-02T10:49:02;2.85;;;0.68;;
85757;SDS011;76202;52.626;4.746;2024-03-02T10:51:29;7.20;;;1.10;;
85757;SDS011;76202;52.626;4.746;2024-03-02T10:53:59;4.88;;;0.85;;
85757;SDS011;76202;52.626;4.746;2024-03-02T10:56:38;3.42;;;0.80;;
85757;SDS011;76202;52.626;4.746;2024-03-02T11:01:55;3.72;;;1.00;;
85757;SDS011;76202;52.626;4.746;2024-03-02T11:04:24;4.18;;;1.00;;
85757;SDS011;76202;52.626;4.746;2024-03-02T11:06:51;4.65;;;1.00;;
85757;SDS011;76202;52.626;4.746;2024-03-02T11:09:20;3.38;;;0.90;;
85757;SDS011;76202;52.626;4.746;2024-03-02T11:11:49;3.90;;;1.00;;
85757;SDS011;76202;52.626;4.746;2024-03-02T11:14:25;4.90;;;1.05;;
85757;SDS011;76202;52.626;4.746;2024-03-02T11:16:50;4.00;;;1.13;;
85757;SDS011;76202;52.626;4.746;2024-03-02T11:19:17;6.60;;;1.02;;
85757;SDS011;76202;52.626;4.746;2024-03-02T11:21:43;3.22;;;1.08;;
85757;SDS011;76202;52.626;4.746;2024-03-02T11:26:58;10.38;;;1.48;;
85757;SDS011;76202;52.626;4.746;2024-03-02T11:29:56;10.48;;;1.55;;
85757;SDS011;76202;52.626;4.746;2024-03-02T11:32:17;7.30;;;1.25;;
85757;SDS011;76202;52.626;4.746;2024-03-02T11:34:46;7.88;;;1.10;;
85757;SDS011;76202;52.626;4.746;2024-03-02T11:37:14;7.22;;;0.98;;
85757;SDS011;76202;52.626;4.746;2024-03-02T11:39:41;7.45;;;1.25;;
85757;SDS011;76202;52.626;4.746;2024-03-02T11:42:08;11.75;;;1.30;;
85757;SDS011;76202;52.626;4.746;2024-03-02T11:44:35;6.85;;;1.10;;
85757;SDS011;76202;52.626;4.746;2024-03-02T11:47:05;13.00;;;1.70;;
85757;SDS011;76202;52.626;4.746;2024-03-02T11:49:42;6.53;;;1.13;;
85757;SDS011;76202;52.626;4.746;2024-03-02T11:52:13;13.20;;;1.30;;
85757;SDS011;76202;52.626;4.746;2024-03-02T11:54:46;9.90;;;1.40;;
85757;SDS011;76202;52.626;4.746;2024-03-02T11:57:13;6.93;;;1.37;;
85757;SDS011;76202;52.626;4.746;2024-03-02T11:59:40;7.68;;;1.45;;
85757;SDS011;76202;52.626;4.746;2024-03-02T12:02:06;6.65;;;1.35;;
85757;SDS011;76202;52.626;4.746;2024-03-02T12:04:32;7.88;;;1.40;;
85757;SDS011;76202;52.626;4.746;2024-03-02T12:07:00;6.72;;;1.50;;
85757;SDS011;76202;52.626;4.746;2024-03-02T12:09:28;7.15;;;1.50;;
85757;SDS011;76202;52.626;4.746;2024-03-02T12:12:03;7.60;;;1.55;;
85757;SDS011;76202;52.626;4.746;2024-03-02T12:14:36;10.52;;;1.75;;
85757;SDS011;76202;52.626;4.746;2024-03-02T12:17:03;12.70;;;2.10;;
85757;SDS011;76202;52.626;4.746;2024-03-02T12:19:29;12.63;;;1.80;;
85757;SDS011;76202;52.626;4.746;2024-03-02T12:22:01;9.27;;;1.80;;
85757;SDS011;76202;52.626;4.746;2024-03-02T12:24:27;11.57;;;1.90;;
85757;SDS011;76202;52.626;4.746;2024-03-02T12:26:54;13.18;;;2.15;;
85757;SDS011;76202;52.626;4.746;2024-03-02T12:29:20;11.98;;;2.20;;
85757;SDS011;76202;52.626;4.746;2024-03-02T12:31:49;19.13;;;2.45;;
85757;SDS011;76202;52.626;4.746;2024-03-02T12:34:17;10.73;;;2.10;;
85757;SDS011;76202;52.626;4.746;2024-03-02T12:36:43;13.48;;;2.08;;
85757;SDS011;76202;52.626;4.746;2024-03-02T12:39:14;10.05;;;2.15;;
85757;SDS011;76202;52.626;4.746;2024-03-02T12:41:40;10.57;;;2.00;;
85757;SDS011;76202;52.626;4.746;2024-03-02T12:44:06;11.55;;;2.40;;
85757;SDS011;76202;52.626;4.746;2024-03-02T12:46:32;11.18;;;1.80;;
85757;SDS011;76202;52.626;4.746;2024-03-02T12:48:58;14.13;;;3.13;;
85757;SDS011;76202;52.626;4.746;2024-03-02T12:51:29;12.30;;;2.35;;
85757;SDS011;76202;52.626;4.746;2024-03-02T12:53:55;11.07;;;2.28;;
85757;SDS011;76202;52.626;4.746;2024-03-02T12:56:22;12.30;;;2.50;;
85757;SDS011;76202;52.626;4.746;2024-03-02T12:58:47;9.95;;;2.25;;
85757;SDS011;76202;52.626;4.746;2024-03-02T13:01:14;12.93;;;2.05;;
85757;SDS011;76202;52.626;4.746;2024-03-02T13:03:40;12.63;;;3.47;;
85757;SDS011;76202;52.626;4.746;2024-03-02T13:06:06;11.20;;;2.28;;
85757;SDS011;76202;52.626;4.746;2024-03-02T13:08:33;14.60;;;4.03;;
85757;SDS011;76202;52.626;4.746;2024-03-02T13:10:59;9.85;;;1.98;;
85757;SDS011;76202;52.626;4.746;2024-03-02T13:13:24;12.18;;;1.95;;
85757;SDS011;76202;52.626;4.746;2024-03-02T13:15:49;12.10;;;1.90;;
85757;SDS011;76202;52.626;4.746;2024-03-02T13:18:17;11.40;;;1.98;;
85757;SDS011;76202;52.626;4.746;2024-03-02T13:20:43;12.30;;;2.22;;
85757;SDS011;76202;52.626;4.746;2024-03-02T13:23:08;10.02;;;1.90;;
85757;SDS011;76202;52.626;4.746;2024-03-02T13:25:34;9.30;;;1.83;;
85757;SDS011;76202;52.626;4.746;2024-03-02T13:28:00;11.23;;;2.13;;
85757;SDS011;76202;52.626;4.746;2024-03-02T13:30:25;10.10;;;1.95;;
85757;SDS011;76202;52.626;4.746;2024-03-02T13:32:51;10.45;;;2.00;;
85757;SDS011;76202;52.626;4.746;2024-03-02T13:35:16;10.60;;;2.28;;
85757;SDS011;76202;52.626;4.746;2024-03-02T13:37:41;10.73;;;1.98;;
85757;SDS011;76202;52.626;4.746;2024-03-02T13:40:07;14.55;;;2.20;;
85757;SDS011;76202;52.626;4.746;2024-03-02T13:42:38;14.20;;;2.47;;
85757;SDS011;76202;52.626;4.746;2024-03-02T13:45:05;13.65;;;1.90;;
85757;SDS011;76202;52.626;4.746;2024-03-02T13:47:31;15.95;;;2.28;;
85757;SDS011;76202;52.626;4.746;2024-03-02T13:49:57;13.02;;;2.50;;
85757;SDS011;76202;52.626;4.746;2024-03-02T13:52:23;9.93;;;1.88;;
85757;SDS011;76202;52.626;4.746;2024-03-02T13:54:48;10.70;;;2.13;;
85757;SDS011;76202;52.626;4.746;2024-03-02T13:57:13;13.93;;;1.90;;
85757;SDS011;76202;52.626;4.746;2024-03-02T13:59:40;12.02;;;2.15;;
85757;SDS011;76202;52.626;4.746;2024-03-02T14:02:07;9.57;;;1.90;;
85757;SDS011;76202;52.626;4.746;2024-03-02T14:04:33;8.02;;;1.80;;
85757;SDS011;76202;52.626;4.746;2024-03-02T14:07:00;8.73;;;2.00;;
85757;SDS011;76202;52.626;4.746;2024-03-02T14:09:25;10.18;;;2.17;;
85757;SDS011;76202;52.626;4.746;2024-03-02T14:11:52;13.38;;;2.13;;
85757;SDS011;76202;52.626;4.746;2024-03-02T14:14:26;11.85;;;2.08;;
85757;SDS011;76202;52.626;4.746;2024-03-02T14:16:52;10.73;;;1.88;;
85757;SDS011;76202;52.626;4.746;2024-03-02T14:19:19;10.63;;;1.83;;
85757;SDS011;76202;52.626;4.746;2024-03-02T14:21:46;9.02;;;1.67;;
85757;SDS011;76202;52.626;4.746;2024-03-02T14:24:12;6.97;;;1.67;;
85757;SDS011;76202;52.626;4.746;2024-03-02T14:26:38;11.38;;;1.98;;
85757;SDS011;76202;52.626;4.746;2024-03-02T14:29:03;8.98;;;1.73;;
85757;SDS011;76202;52.626;4.746;2024-03-02T14:31:29;10.10;;;1.85;;
85757;SDS011;76202;52.626;4.746;2024-03-02T14:33:56;8.07;;;1.67;;
85757;SDS011;76202;52.626;4.746;2024-03-02T14:36:21;11.30;;;2.00;;
85757;SDS011;76202;52.626;4.746;2024-03-02T14:38:47;6.20;;;1.58;;
85757;SDS011;76202;52.626;4.746;2024-03-02T14:41:13;7.40;;;1.95;;
85757;SDS011;76202;52.626;4.746;2024-03-02T14:43:39;8.10;;;1.67;;
85757;SDS011;76202;52.626;4.746;2024-03-02T14:46:04;5.93;;;1.40;;
85757;SDS011;76202;52.626;4.746;2024-03-02T14:48:31;9.15;;;1.98;;
85757;SDS011;76202;52.626;4.746;2024-03-02T14:50:56;8.95;;;1.63;;